createdAt,value
2023-01-07T00:01:44.401Z,100321.75
2023-01-07T00:04:15.529Z,100315.97
2023-01-07T00:06:44.866Z,100312.38
2023-01-07T00:09:15.503Z,100321.31
2023-01-07T00:11:43.112Z,100308.13
2023-01-07T00:14:12.676Z,100317.00
2023-01-07T00:16:39.995Z,100302.94
2023-01-07T00:19:10.041Z,100314.59
2023-01-07T00:21:38.272Z,100309.03
2023-01-07T00:24:07.135Z,100308.84
2023-01-07T00:26:37.506Z,100301.63
2023-01-07T00:29:05.948Z,100299.69
2023-01-07T00:31:35.561Z,100292.34
2023-01-07T00:34:02.922Z,100290.63
2023-01-07T00:36:33.178Z,100285.34
2023-01-07T00:39:04.732Z,100293.81
2023-01-07T00:41:32.304Z,100283.69
2023-01-07T00:43:59.597Z,100277.72
2023-01-07T00:46:27.509Z,100267.25
2023-01-07T00:48:54.323Z,100278.75
2023-01-07T00:51:21.172Z,100278.25
2023-01-07T00:53:48.223Z,100270.16
2023-01-07T00:56:17.599Z,100267.25
2023-01-07T00:58:45.596Z,100263.31
2023-01-07T01:01:13.495Z,100261.47
2023-01-07T01:03:40.610Z,100260.91
2023-01-07T01:06:12.431Z,100250.09
2023-01-07T01:08:41.542Z,100252.50
2023-01-07T01:11:10.615Z,100253.56
2023-01-07T01:13:39.399Z,100248.94
2023-01-07T01:16:13.525Z,100243.94
2023-01-07T01:18:41.405Z,100239.31
2023-01-07T01:21:12.544Z,100243.59
2023-01-07T01:23:39.928Z,100239.81
2023-01-07T01:26:10.349Z,100237.59
2023-01-07T01:28:38.585Z,100237.13
2023-01-07T01:31:07.072Z,100236.53
2023-01-07T01:33:54.429Z,100242.13
2023-01-07T01:36:23.099Z,100239.25
2023-01-07T01:38:51.544Z,100239.88
2023-01-07T01:41:19.044Z,100232.59
2023-01-07T01:43:49.497Z,100229.31
2023-01-07T01:46:25.853Z,100228.13
2023-01-07T01:49:00.190Z,100238.94
2023-01-07T01:51:33.737Z,100232.19
2023-01-07T01:54:04.244Z,100238.41
2023-01-07T01:56:38.243Z,100233.66
2023-01-07T01:59:13.924Z,100233.44
2023-01-07T02:01:41.337Z,100231.78
2023-01-07T02:04:17.151Z,100231.59
2023-01-07T02:07:00.312Z,100232.59
2023-01-07T02:09:28.789Z,100229.28
2023-01-07T02:12:09.597Z,100226.00
2023-01-07T02:15:02.840Z,100226.78
2023-01-07T02:17:51.148Z,100216.00
2023-01-07T02:20:47.460Z,100221.38
2023-01-07T02:24:28.902Z,100218.69
2023-01-07T02:27:32.075Z,100222.78
2023-01-07T02:30:35.741Z,100208.09
2023-01-07T02:33:38.133Z,100208.31
2023-01-07T02:36:25.312Z,100205.88
2023-01-07T02:39:11.986Z,100202.66
2023-01-07T02:41:51.108Z,100189.16
2023-01-07T02:44:33.272Z,100187.91
2023-01-07T02:47:09.577Z,100186.88
2023-01-07T02:49:37.901Z,100176.47
2023-01-07T02:52:21.990Z,100171.25
2023-01-07T02:54:56.626Z,100173.22
2023-01-07T02:58:11.146Z,100175.84
2023-01-07T03:01:07.061Z,100175.59
2023-01-07T03:03:57.630Z,100175.00
2023-01-07T03:06:51.865Z,100167.34
2023-01-07T03:09:33.410Z,100168.03
2023-01-07T03:12:14.456Z,100161.47
2023-01-07T03:14:50.476Z,100155.38
2023-01-07T03:17:25.478Z,100156.97
2023-01-07T03:19:57.867Z,100153.63
2023-01-07T03:22:31.655Z,100148.88
2023-01-07T03:25:02.512Z,100148.88
2023-01-07T03:27:35.367Z,100142.22
2023-01-07T03:30:08.879Z,100142.47
2023-01-07T03:32:42.520Z,100137.72
2023-01-07T03:35:10.459Z,100133.16
2023-01-07T03:37:42.855Z,100137.72
2023-01-07T03:40:12.669Z,100142.28
2023-01-07T03:42:41.544Z,100142.47
2023-01-07T03:45:15.539Z,100139.44
2023-01-07T03:47:47.816Z,100138.88
2023-01-07T03:50:15.872Z,100136.09
2023-01-07T03:52:46.749Z,100131.75
2023-01-07T03:55:13.655Z,100133.47
2023-01-07T03:57:41.337Z,100126.38
2023-01-07T04:00:20.233Z,100123.84
2023-01-07T04:02:55.790Z,100115.16
2023-01-07T04:05:27.676Z,100120.22
2023-01-07T04:07:56.163Z,100121.47
2023-01-07T04:10:25.306Z,100116.94
2023-01-07T04:12:52.751Z,100111.94
2023-01-07T04:15:20.134Z,100106.34
2023-01-07T04:17:46.949Z,100106.47
2023-01-07T04:20:13.797Z,100112.00
2023-01-07T04:22:40.673Z,100106.34
2023-01-07T04:25:10.099Z,100101.41
2023-01-07T04:27:38.059Z,100106.34
2023-01-07T04:30:06.782Z,100102.75
2023-01-07T04:32:34.500Z,100101.28
2023-01-07T04:35:01.969Z,100092.13
2023-01-07T04:37:30.355Z,100101.28
2023-01-07T04:39:57.571Z,100092.16
2023-01-07T04:42:26.015Z,100089.69
2023-01-07T04:44:53.533Z,100091.75
2023-01-07T04:47:20.516Z,100086.69
2023-01-07T04:49:48.088Z,100091.28
2023-01-07T04:52:15.496Z,100081.94
2023-01-07T04:54:42.362Z,100069.50
2023-01-07T04:57:09.280Z,100076.94
2023-01-07T04:59:37.544Z,100076.91
2023-01-07T05:02:04.676Z,100079.56
2023-01-07T05:04:31.774Z,100075.00
2023-01-07T05:06:58.782Z,100067.50
2023-01-07T05:09:26.647Z,100068.78
2023-01-07T05:11:53.629Z,100065.91
2023-01-07T05:14:20.920Z,100064.06
2023-01-07T05:16:52.715Z,100058.00
2023-01-07T05:19:19.907Z,100057.88
2023-01-07T05:21:48.787Z,100051.03
2023-01-07T05:24:17.276Z,100054.19
2023-01-07T05:26:45.307Z,100049.69
2023-01-07T05:29:13.603Z,100040.59
2023-01-07T05:31:42.102Z,100033.00
2023-01-07T05:34:10.638Z,100035.28
2023-01-07T05:36:38.013Z,100040.94
2023-01-07T05:39:06.093Z,100041.34
2023-01-07T05:41:33.691Z,100034.91
2023-01-07T05:44:00.958Z,100021.81
2023-01-07T05:46:27.810Z,100022.25
2023-01-07T05:48:54.894Z,100021.00
2023-01-07T05:51:23.102Z,100014.38
2023-01-07T05:53:49.904Z,100012.50
2023-01-07T05:56:16.754Z,100026.13
2023-01-07T05:58:43.814Z,100022.09
2023-01-07T06:01:10.785Z,100016.00
2023-01-07T06:03:37.857Z,100013.81
2023-01-07T06:06:06.013Z,100013.13
2023-01-07T06:08:34.488Z,100013.81
2023-01-07T06:11:01.910Z,100016.66
2023-01-07T06:13:28.824Z,100008.25
2023-01-07T06:16:00.184Z,100000.75
2023-01-07T06:18:27.387Z,100008.84
2023-01-07T06:20:54.218Z,100001.19
2023-01-07T06:23:21.388Z,100001.56
2023-01-07T06:25:49.910Z,99999.28
2023-01-07T06:28:16.905Z,99997.88
2023-01-07T06:30:45.531Z,99993.28
2023-01-07T06:33:12.729Z,99985.97
2023-01-07T06:35:40.074Z,99989.50
2023-01-07T06:38:07.338Z,99981.19
2023-01-07T06:40:34.191Z,99991.84
2023-01-07T06:43:02.371Z,99991.69
2023-01-07T06:45:29.245Z,99984.00
2023-01-07T06:47:56.172Z,99981.53
2023-01-07T06:50:23.283Z,99984.00
2023-01-07T06:52:50.089Z,99980.69
2023-01-07T06:55:17.198Z,99971.34
2023-01-07T06:57:44.345Z,99969.41
2023-01-07T07:00:14.299Z,99972.91
2023-01-07T07:02:41.400Z,99970.00
2023-01-07T07:05:08.738Z,99974.56
2023-01-07T07:07:35.873Z,99969.59
2023-01-07T07:10:02.885Z,99968.81
2023-01-07T07:12:30.045Z,99965.91
2023-01-07T07:14:56.786Z,99964.66
2023-01-07T07:17:25.531Z,99967.91
2023-01-07T07:19:52.637Z,99967.25
2023-01-07T07:22:19.700Z,99962.06
2023-01-07T07:24:46.472Z,99960.75
2023-01-07T07:27:13.829Z,99957.25
2023-01-07T07:29:40.655Z,99952.06
2023-01-07T07:32:07.464Z,99951.88
2023-01-07T07:34:36.639Z,99954.94
2023-01-07T07:37:03.640Z,99949.16
2023-01-07T07:39:30.466Z,99961.84
2023-01-07T07:41:57.314Z,99950.03
2023-01-07T07:44:24.413Z,99948.13
2023-01-07T07:46:51.359Z,99948.31
2023-01-07T07:49:18.407Z,99938.34
2023-01-07T07:51:46.619Z,99937.50
2023-01-07T07:54:13.463Z,99927.13
2023-01-07T07:56:40.592Z,99935.41
2023-01-07T07:59:07.392Z,99934.38
2023-01-07T08:01:37.065Z,99936.03
2023-01-07T08:04:04.494Z,99932.09
2023-01-07T08:06:31.485Z,99926.72
2023-01-07T08:09:00.092Z,99935.84
2023-01-07T08:11:27.075Z,99928.16
2023-01-07T08:13:53.912Z,99921.53
2023-01-07T08:16:20.800Z,99930.25
2023-01-07T08:18:48.172Z,99919.72
2023-01-07T08:21:15.066Z,99923.63
2023-01-07T08:23:42.056Z,99926.31
2023-01-07T08:26:10.374Z,99919.31
2023-01-07T08:28:38.334Z,99924.72
2023-01-07T08:31:07.231Z,99916.44
2023-01-07T08:33:34.610Z,99917.69
2023-01-07T08:36:02.502Z,99919.97
2023-01-07T08:38:30.677Z,99924.16
2023-01-07T08:40:57.865Z,99923.94
2023-01-07T08:43:27.398Z,99920.19
2023-01-07T08:45:54.604Z,99919.78
2023-01-07T08:48:22.426Z,99921.47
2023-01-07T08:50:51.597Z,99911.72
2023-01-07T08:53:19.040Z,99913.19
2023-01-07T08:55:46.000Z,99915.22
2023-01-07T08:58:13.075Z,99910.69
2023-01-07T09:00:41.784Z,99907.44
2023-01-07T09:03:08.902Z,99905.56
2023-01-07T09:05:37.064Z,99907.81
2023-01-07T09:08:04.297Z,99909.72
2023-01-07T09:10:31.320Z,99906.84
2023-01-07T09:12:58.236Z,99900.44
2023-01-07T09:15:25.666Z,99895.66
2023-01-07T09:17:53.800Z,99906.13
2023-01-07T09:20:20.901Z,99897.59
2023-01-07T09:22:47.732Z,99896.16
2023-01-07T09:25:15.092Z,99905.50
2023-01-07T09:27:41.931Z,99904.66
2023-01-07T09:30:10.543Z,99904.88
2023-01-07T09:32:37.635Z,99902.13
2023-01-07T09:35:07.342Z,99903.34
2023-01-07T09:37:34.662Z,99900.47
2023-01-07T09:40:01.543Z,99906.50
2023-01-07T09:42:40.432Z,99899.84
2023-01-07T09:45:21.195Z,99895.69
2023-01-07T09:47:52.896Z,99900.13
2023-01-07T09:50:39.474Z,99898.44
2023-01-07T09:53:14.903Z,99898.03
2023-01-07T09:56:10.937Z,99888.88
2023-01-07T09:58:31.155Z,99887.41
2023-01-07T10:01:09.102Z,99881.81
2023-01-07T10:04:01.224Z,99874.31
2023-01-07T10:06:44.450Z,99876.59
2023-01-07T10:09:33.546Z,99876.56
2023-01-07T10:12:17.703Z,99870.16
2023-01-07T10:15:18.654Z,99871.81
2023-01-07T10:18:03.936Z,99871.25
2023-01-07T10:20:42.374Z,99871.44
2023-01-07T10:23:19.235Z,99864.75
2023-01-07T10:25:50.979Z,99848.72
2023-01-07T10:28:28.641Z,99847.44
2023-01-07T10:30:55.567Z,99843.16
2023-01-07T10:33:26.198Z,99851.69
2023-01-07T10:36:14.792Z,99844.44
2023-01-07T10:38:56.013Z,99846.72
2023-01-07T10:41:36.646Z,99838.81
2023-01-07T10:44:44.472Z,99835.72
2023-01-07T10:47:27.512Z,99834.03
2023-01-07T10:50:22.197Z,99828.38
2023-01-07T10:53:03.821Z,99817.28
2023-01-07T10:55:52.607Z,99811.75
2023-01-07T10:58:19.428Z,99802.59
2023-01-07T11:00:47.707Z,99792.00
2023-01-07T11:03:21.442Z,99793.38
2023-01-07T11:05:57.297Z,99783.88
2023-01-07T11:08:32.419Z,99784.97
2023-01-07T11:11:01.023Z,99779.13
2023-01-07T11:13:34.223Z,99787.00
2023-01-07T11:16:10.394Z,99782.53
2023-01-07T11:18:52.380Z,99769.81
2023-01-07T11:21:43.845Z,99760.47
2023-01-07T11:24:32.948Z,99755.09
2023-01-07T11:27:11.243Z,99751.34
2023-01-07T11:29:43.879Z,99746.25
2023-01-07T11:32:21.929Z,99736.56
2023-01-07T11:34:55.637Z,99738.34
2023-01-07T11:37:34.170Z,99732.19
2023-01-07T11:40:17.685Z,99730.59
2023-01-07T11:42:52.344Z,99726.84
2023-01-07T11:45:23.088Z,99713.63
2023-01-07T11:48:00.358Z,99707.91
2023-01-07T11:50:35.574Z,99707.63
2023-01-07T11:53:23.597Z,99700.84
2023-01-07T11:56:02.287Z,99686.59
2023-01-07T11:58:34.146Z,99683.41
2023-01-07T12:01:15.303Z,99676.97
2023-01-07T12:03:45.061Z,99665.06
2023-01-07T12:06:23.654Z,99655.44
2023-01-07T12:09:02.396Z,99655.66
2023-01-07T12:11:34.495Z,99650.41
2023-01-07T12:14:17.990Z,99637.41
2023-01-07T12:16:47.304Z,99630.22
2023-01-07T12:19:32.856Z,99630.63
2023-01-07T12:22:21.846Z,99624.31
2023-01-07T12:25:22.146Z,99615.78
2023-01-07T12:28:05.799Z,99612.63
2023-01-07T12:31:04.666Z,99610.97
2023-01-07T12:33:56.584Z,99606.63
2023-01-07T12:36:37.757Z,99599.78
2023-01-07T12:39:16.140Z,99589.03
2023-01-07T12:41:54.139Z,99581.66
2023-01-07T12:44:22.753Z,99579.56
2023-01-07T12:47:32.640Z,99579.75
2023-01-07T12:50:01.563Z,99567.69
2023-01-07T12:52:40.640Z,99567.56
2023-01-07T12:55:19.408Z,99557.25
2023-01-07T12:57:59.558Z,99561.38
2023-01-07T13:00:31.819Z,99542.16
2023-01-07T13:03:17.870Z,99550.16
2023-01-07T13:05:52.750Z,99544.03
2023-01-07T13:08:34.806Z,99547.34
2023-01-07T13:11:14.862Z,99544.13
2023-01-07T13:13:49.666Z,99541.72
2023-01-07T13:16:16.758Z,99542.31
2023-01-07T13:18:45.017Z,99540.00
2023-01-07T13:21:15.780Z,99542.22
2023-01-07T13:24:13.615Z,99528.31
2023-01-07T13:26:57.230Z,99523.97
2023-01-07T13:29:53.579Z,99517.50
2023-01-07T13:33:02.563Z,99514.13
2023-01-07T13:36:13.777Z,99512.88
2023-01-07T13:39:18.287Z,99515.75
2023-01-07T13:42:09.289Z,99509.31
2023-01-07T13:45:05.911Z,99511.44
2023-01-07T13:47:45.570Z,99507.19
2023-01-07T13:50:32.473Z,99502.28
2023-01-07T13:53:05.573Z,99498.38
2023-01-07T13:55:41.501Z,99500.63
2023-01-07T13:58:44.766Z,99500.91
2023-01-07T14:01:15.711Z,99500.25
2023-01-07T14:03:49.866Z,99499.72
2023-01-07T14:06:45.012Z,99505.22
2023-01-07T14:09:39.751Z,99515.22
2023-01-07T14:13:05.693Z,99503.63
2023-01-07T14:15:56.334Z,99502.22
2023-01-07T14:18:58.111Z,99497.28
2023-01-07T14:21:51.497Z,99505.50
2023-01-07T14:24:43.932Z,99511.03
2023-01-07T14:27:40.567Z,99509.81
2023-01-07T14:30:20.079Z,99508.69
2023-01-07T14:32:56.317Z,99507.53
2023-01-07T14:35:31.877Z,99511.66
2023-01-07T14:37:58.819Z,99508.84
2023-01-07T14:41:04.156Z,99499.13
2023-01-07T14:44:20.787Z,99501.03
2023-01-07T14:46:50.984Z,99500.88
2023-01-07T14:49:57.009Z,99505.50
2023-01-07T14:52:57.089Z,99506.25
2023-01-07T14:55:55.148Z,99506.69
2023-01-07T14:58:45.591Z,99506.16
2023-01-07T15:01:47.823Z,99496.38
2023-01-07T15:05:02.190Z,99491.88
2023-01-07T15:07:35.824Z,99496.25
2023-01-07T15:10:20.357Z,99491.88
2023-01-07T15:12:56.149Z,99489.88
2023-01-07T15:15:29.102Z,99489.03
2023-01-07T15:17:56.599Z,99488.22
2023-01-07T15:20:39.250Z,99490.97
2023-01-07T15:23:17.567Z,99491.56
2023-01-07T15:25:56.660Z,99487.22
2023-01-07T15:28:39.680Z,99480.38
2023-01-07T15:31:20.597Z,99484.19
2023-01-07T15:34:05.633Z,99472.63
2023-01-07T15:36:36.848Z,99472.06
2023-01-07T15:39:04.919Z,99465.88
2023-01-07T15:41:34.993Z,99460.09
2023-01-07T15:44:05.215Z,99466.16
2023-01-07T15:46:39.231Z,99460.81
2023-01-07T15:49:17.389Z,99464.03
2023-01-07T15:51:47.840Z,99458.03
2023-01-07T15:54:34.529Z,99458.53
2023-01-07T15:57:11.378Z,99450.06
2023-01-07T15:59:45.964Z,99457.78
2023-01-07T16:02:24.285Z,99455.75
2023-01-07T16:04:53.401Z,99457.03
2023-01-07T16:07:28.710Z,99456.19
2023-01-07T16:09:57.385Z,99458.31
2023-01-07T16:12:32.893Z,99451.25
2023-01-07T16:14:59.786Z,99452.13
2023-01-07T16:17:28.007Z,99460.38
2023-01-07T16:20:19.383Z,99460.03
2023-01-07T16:22:46.436Z,99464.38
2023-01-07T16:25:22.913Z,99472.09
2023-01-07T16:27:50.723Z,99463.94
2023-01-07T16:30:18.454Z,99463.72
2023-01-07T16:32:48.151Z,99454.00
2023-01-07T16:35:26.071Z,99472.66
2023-01-07T16:37:53.344Z,99462.88
2023-01-07T16:40:30.903Z,99468.03
2023-01-07T16:42:57.931Z,99470.53
2023-01-07T16:45:29.101Z,99461.59
2023-01-07T16:48:14.457Z,99461.38
2023-01-07T16:50:43.677Z,99463.44
2023-01-07T16:53:28.280Z,99464.09
2023-01-07T16:56:14.139Z,99463.69
2023-01-07T16:58:47.156Z,99454.78
2023-01-07T17:01:20.003Z,99452.72
2023-01-07T17:03:55.548Z,99452.16
2023-01-07T17:06:28.213Z,99449.28
2023-01-07T17:08:57.512Z,99443.28
2023-01-07T17:11:33.813Z,99441.63
2023-01-07T17:14:00.897Z,99440.41
2023-01-07T17:16:31.520Z,99435.00
2023-01-07T17:19:26.559Z,99432.09
2023-01-07T17:21:54.277Z,99431.50
2023-01-07T17:24:46.993Z,99424.66
2023-01-07T17:27:25.591Z,99419.69
2023-01-07T17:29:52.732Z,99421.31
2023-01-07T17:32:20.078Z,99417.41
2023-01-07T17:34:48.215Z,99419.25
2023-01-07T17:37:16.906Z,99417.78
2023-01-07T17:39:44.172Z,99412.59
2023-01-07T17:42:21.526Z,99417.38
2023-01-07T17:44:48.386Z,99406.78
2023-01-07T17:47:15.367Z,99406.00
2023-01-07T17:49:42.839Z,99407.47
2023-01-07T17:52:11.261Z,99409.75
2023-01-07T17:54:40.210Z,99407.72
2023-01-07T17:57:11.775Z,99413.13
2023-01-07T17:59:38.802Z,99419.34
2023-01-07T18:02:05.918Z,99408.16
2023-01-07T18:04:32.927Z,99418.50
2023-01-07T18:06:59.895Z,99424.72
2023-01-07T18:09:28.023Z,99432.38
2023-01-07T18:11:55.094Z,99422.84
2023-01-07T18:14:22.011Z,99415.19
2023-01-07T18:16:49.435Z,99417.47
2023-01-07T18:19:16.781Z,99410.84
2023-01-07T18:21:43.614Z,99414.78
2023-01-07T18:24:15.783Z,99413.34
2023-01-07T18:26:44.668Z,99422.44
2023-01-07T18:29:13.061Z,99415.78
2023-01-07T18:31:42.904Z,99412.91
2023-01-07T18:34:10.842Z,99419.94
2023-01-07T18:36:37.857Z,99413.31
2023-01-07T18:39:06.413Z,99421.41
2023-01-07T18:41:34.021Z,99415.81
2023-01-07T18:44:02.392Z,99408.56
2023-01-07T18:46:29.280Z,99401.50
2023-01-07T18:48:56.241Z,99409.81
2023-01-07T18:51:23.261Z,99406.69
2023-01-07T18:53:50.131Z,99398.19
2023-01-07T18:56:17.009Z,99393.81
2023-01-07T18:58:44.334Z,99390.13
2023-01-07T19:01:12.738Z,99385.34
2023-01-07T19:03:40.053Z,99390.53
2023-01-07T19:06:08.948Z,99403.16
2023-01-07T19:08:36.247Z,99393.63
2023-01-07T19:11:06.666Z,99392.00
2023-01-07T19:13:33.718Z,99393.44
2023-01-07T19:16:05.506Z,99391.16
2023-01-07T19:18:33.774Z,99395.13
2023-01-07T19:21:01.985Z,99394.06
2023-01-07T19:23:28.814Z,99385.78
2023-01-07T19:26:00.329Z,99386.63
2023-01-07T19:28:27.831Z,99381.63
2023-01-07T19:30:55.430Z,99385.59
2023-01-07T19:33:22.232Z,99382.69
2023-01-07T19:35:59.445Z,99377.53
2023-01-07T19:38:26.360Z,99383.72
2023-01-07T19:40:54.438Z,99382.66
2023-01-07T19:43:21.285Z,99390.91
2023-01-07T19:45:53.970Z,99387.66
2023-01-07T19:48:21.213Z,99375.22
2023-01-07T19:50:55.467Z,99384.13
2023-01-07T19:53:22.907Z,99379.97
2023-01-07T19:55:51.117Z,99381.03
2023-01-07T19:58:18.162Z,99386.59
2023-01-07T20:00:45.091Z,99378.50
2023-01-07T20:03:12.925Z,99376.47
2023-01-07T20:05:39.724Z,99380.41
2023-01-07T20:08:08.245Z,99366.13
2023-01-07T20:10:35.430Z,99365.94
2023-01-07T20:13:02.564Z,99373.38
2023-01-07T20:15:29.420Z,99365.28
2023-01-07T20:17:56.191Z,99365.09
2023-01-07T20:20:22.940Z,99363.63
2023-01-07T20:22:49.713Z,99362.38
2023-01-07T20:25:18.746Z,99355.75
2023-01-07T20:27:45.572Z,99343.78
2023-01-07T20:30:13.546Z,99347.69
2023-01-07T20:32:40.593Z,99335.28
2023-01-07T20:35:09.013Z,99347.91
2023-01-07T20:37:35.973Z,99332.81
2023-01-07T20:40:04.124Z,99327.44
2023-01-07T20:42:32.312Z,99329.91
2023-01-07T20:44:59.393Z,99321.38
2023-01-07T20:47:26.597Z,99316.03
2023-01-07T20:49:53.725Z,99323.25
2023-01-07T20:52:20.836Z,99325.34
2023-01-07T20:54:47.719Z,99327.41
2023-01-07T20:57:14.545Z,99329.06
2023-01-07T20:59:43.152Z,99330.09
2023-01-07T21:02:16.226Z,99324.31
2023-01-07T21:04:43.920Z,99334.47
2023-01-07T21:07:10.853Z,99338.56
2023-01-07T21:09:38.714Z,99335.47
2023-01-07T21:12:06.245Z,99340.88
2023-01-07T21:14:33.155Z,99333.63
2023-01-07T21:17:01.501Z,99336.75
2023-01-07T21:19:28.497Z,99334.84
2023-01-07T21:21:55.331Z,99328.44
2023-01-07T21:24:22.225Z,99342.91
2023-01-07T21:26:48.988Z,99329.47
2023-01-07T21:29:15.773Z,99328.00
2023-01-07T21:31:43.497Z,99331.53
2023-01-07T21:34:11.847Z,99331.56
2023-01-07T21:36:40.284Z,99323.28
2023-01-07T21:39:07.349Z,99323.88
2023-01-07T21:41:34.177Z,99334.00
2023-01-07T21:44:01.318Z,99324.28
2023-01-07T21:46:28.173Z,99318.50
2023-01-07T21:48:55.229Z,99322.84
2023-01-07T21:51:26.341Z,99328.22
2023-01-07T21:53:55.739Z,99320.53
2023-01-07T21:56:24.584Z,99336.09
2023-01-07T21:58:51.904Z,99327.81
2023-01-07T22:01:19.902Z,99324.88
2023-01-07T22:03:49.360Z,99327.81
2023-01-07T22:06:20.606Z,99323.44
2023-01-07T22:08:53.081Z,99324.28
2023-01-07T22:11:20.003Z,99321.41
2023-01-07T22:13:50.595Z,99314.94
2023-01-07T22:16:18.465Z,99319.53
2023-01-07T22:18:45.520Z,99322.63
2023-01-07T22:21:12.960Z,99313.13
2023-01-07T22:23:39.771Z,99314.94
2023-01-07T22:26:08.776Z,99313.28
2023-01-07T22:28:38.154Z,99307.94
2023-01-07T22:31:13.938Z,99303.19
2023-01-07T22:33:42.591Z,99311.25
2023-01-07T22:36:13.501Z,99311.88
2023-01-07T22:38:40.621Z,99309.19
2023-01-07T22:41:10.271Z,99316.63
2023-01-07T22:43:37.858Z,99317.03
2023-01-07T22:46:12.639Z,99298.41
2023-01-07T22:48:39.927Z,99305.06
2023-01-07T22:51:11.334Z,99307.53
2023-01-07T22:53:38.431Z,99297.41
2023-01-07T22:56:06.474Z,99299.47
2023-01-07T22:58:34.596Z,99303.81
2023-01-07T23:01:12.421Z,99302.78
2023-01-07T23:03:41.151Z,99305.44
2023-01-07T23:06:09.167Z,99302.97
2023-01-07T23:08:36.792Z,99289.31
2023-01-07T23:11:03.871Z,99292.22
2023-01-07T23:13:31.277Z,99286.84
2023-01-07T23:16:02.515Z,99284.56
2023-01-07T23:18:29.851Z,99275.66
2023-01-07T23:20:57.087Z,99272.75
2023-01-07T23:23:27.258Z,99270.28
2023-01-07T23:25:57.969Z,99259.53
2023-01-07T23:28:37.724Z,99254.13
2023-01-07T23:31:06.469Z,99255.78
2023-01-07T23:33:33.543Z,99248.34
2023-01-07T23:36:02.012Z,99251.19
2023-01-07T23:38:28.831Z,99249.56
2023-01-07T23:41:00.820Z,99247.06
2023-01-07T23:43:33.928Z,99238.78
2023-01-07T23:46:04.935Z,99240.44
2023-01-07T23:48:37.381Z,99243.75
2023-01-07T23:51:16.743Z,99236.72
2023-01-07T23:53:45.389Z,99249.34
2023-01-07T23:56:13.287Z,99250.59
2023-01-07T23:58:40.255Z,99255.81
